< < Back
Terminal Aerodrome Forecast


Current Version              Previous Versions:   1  2  3  4  5  6  7  8  9  

Terminal Aerodrome Forecast

981
FTUS42 KGSP 251121
TAFAVL
TAF
KAVL 251121Z 2512/2612 35005KT P6SM SKC
     FM260700 32009KT P6SM FEW250=

Latest METAR

570
SAUS70 KWBC 260200 RRK
MTRAVL
METAR KAVL 260154Z 34007KT 10SM CLR 14/07 A3005 RMK AO2 SLP163
T01390072


USA.gov is the U.S. government's official web portal to all federal, state and local government web resources and services.